Time;durP1;ratioP1;P1;durP2;ratioP2;P2;SDS_P1;SDS_P2;PMS_P1;PMS_P2;Temp;Humidity;BMP_temperature;BMP_pressure;BME280_temperature;BME280_humidity;BME280_pressure;Samples;Min_cycle;Max_cycle;Signal;HPM_P1;HPM_P2
2021/07/26 00:01:01;;;;;;;20.17;17.63;;;19.30;99.90;;;;;;5101252;28;20521;-63
2021/07/26 00:03:29;;;;;;;20.27;18.13;;;19.30;99.90;;;;;;5100614;28;20729;-62
2021/07/26 00:05:57;;;;;;;22.80;20.40;;;19.20;99.90;;;;;;5101250;28;20425;-62
2021/07/26 00:08:35;;;;;;;20.63;16.80;;;19.30;99.90;;;;;;5100602;28;20611;-61
2021/07/26 00:11:07;;;;;;;20.67;18.47;;;19.20;99.90;;;;;;5100839;28;20418;-63
2021/07/26 00:13:34;;;;;;;20.67;18.30;;;19.20;99.90;;;;;;5063089;28;20480;-63
2021/07/26 00:16:02;;;;;;;21.40;19.10;;;19.20;99.90;;;;;;5060870;28;20415;-62
2021/07/26 00:18:30;;;;;;;19.87;17.77;;;19.20;99.90;;;;;;5061570;28;20476;-61
2021/07/26 00:20:58;;;;;;;20.60;17.47;;;19.30;99.90;;;;;;5062548;28;20650;-62
2021/07/26 00:23:26;;;;;;;20.67;18.53;;;19.20;99.90;;;;;;5064549;28;20455;-63
2021/07/26 00:25:53;;;;;;;18.97;17.07;;;19.20;99.90;;;;;;5064701;28;20657;-62
2021/07/26 00:28:21;;;;;;;22.43;18.70;;;19.20;99.90;;;;;;5066192;28;20478;-63
2021/07/26 00:30:48;;;;;;;20.37;18.47;;;19.20;99.90;;;;;;5060851;28;20444;-63
2021/07/26 00:34:06;;;;;;;21.90;18.83;;;19.30;99.90;;;;;;5061302;28;20426;-62
2021/07/26 00:36:43;;;;;;;19.13;17.23;;;19.40;99.90;;;;;;5052072;28;20419;-62
2021/07/26 00:39:12;;;;;;;19.47;17.37;;;19.40;99.90;;;;;;5055046;28;20733;-62
2021/07/26 00:41:41;;;;;;;20.03;18.10;;;19.20;99.90;;;;;;5060451;28;20444;-62
2021/07/26 00:44:08;;;;;;;22.93;16.83;;;19.30;99.90;;;;;;5054622;28;20454;-62
2021/07/26 00:46:36;;;;;;;19.80;17.70;;;19.40;99.90;;;;;;5059757;28;20796;-62
2021/07/26 00:49:09;;;;;;;18.20;16.30;;;19.40;99.90;;;;;;5063494;28;20447;-62
2021/07/26 00:51:38;;;;;;;19.40;17.50;;;19.20;99.90;;;;;;5060649;28;20520;-61
2021/07/26 00:54:06;;;;;;;18.27;16.37;;;19.30;99.90;;;;;;5059392;28;20469;-61
2021/07/26 00:56:34;;;;;;;20.43;17.00;;;19.30;99.90;;;;;;5059410;28;20760;-64
2021/07/26 00:59:02;;;;;;;18.67;16.73;;;19.40;99.90;;;;;;5059062;28;20750;-63
2021/07/26 01:01:29;;;;;;;20.13;18.07;;;19.40;99.90;;;;;;5058254;28;20449;-63
2021/07/26 01:03:57;;;;;;;17.10;15.30;;;19.30;99.90;;;;;;5059915;28;20462;-63
2021/07/26 01:06:24;;;;;;;18.63;16.83;;;19.50;99.90;;;;;;5052837;28;20639;-64
2021/07/26 01:08:51;;;;;;;17.93;16.13;;;19.30;99.90;;;;;;5058091;28;20510;-62
2021/07/26 01:11:18;;;;;;;20.10;18.00;;;19.20;99.90;;;;;;5059122;28;20498;-62
2021/07/26 01:13:45;;;;;;;19.33;17.20;;;19.20;99.90;;;;;;5095130;28;20448;-62
2021/07/26 01:16:12;;;;;;;18.77;16.90;;;19.20;99.90;;;;;;5098499;28;20447;-62
2021/07/26 01:18:39;;;;;;;16.83;15.13;;;19.30;99.90;;;;;;5099814;28;20467;-62
2021/07/26 01:21:15;;;;;;;18.70;16.80;;;19.30;99.90;;;;;;5099000;28;20439;-61
2021/07/26 01:23:45;;;;;;;18.03;16.20;;;19.30;99.90;;;;;;5098780;28;20457;-62
2021/07/26 01:26:14;;;;;;;18.97;16.43;;;19.40;99.90;;;;;;5081464;28;20589;-62
2021/07/26 01:28:46;;;;;;;21.37;19.27;;;19.40;99.90;;;;;;5099811;28;20753;-62
2021/07/26 01:31:14;;;;;;;19.43;17.40;;;19.20;99.90;;;;;;5099183;28;20425;-62
2021/07/26 01:33:42;;;;;;;19.53;17.63;;;19.20;99.90;;;;;;5098933;28;20463;-64
2021/07/26 01:36:10;;;;;;;20.67;16.50;;;19.20;99.90;;;;;;5099001;28;20761;-62
2021/07/26 01:38:38;;;;;;;17.30;15.50;;;19.20;99.90;;;;;;5075899;28;20443;-63
2021/07/26 01:41:07;;;;;;;19.07;17.07;;;19.30;99.90;;;;;;5099122;28;20459;-64
2021/07/26 01:43:40;;;;;;;18.30;16.47;;;19.20;99.90;;;;;;5099996;28;20506;-63
2021/07/26 01:46:33;;;;;;;20.47;18.27;;;19.20;99.90;;;;;;5084467;28;20828;-62
2021/07/26 01:49:19;;;;;;;19.33;17.43;;;19.20;99.90;;;;;;5099276;28;20406;-63
2021/07/26 01:51:47;;;;;;;20.53;17.57;;;19.40;99.90;;;;;;5097877;28;20496;-63
2021/07/26 01:54:14;;;;;;;19.77;17.50;;;19.50;99.90;;;;;;5099141;28;20750;-64
2021/07/26 01:56:41;;;;;;;20.57;18.57;;;19.80;99.90;;;;;;5100730;28;20744;-63
2021/07/26 01:59:09;;;;;;;18.93;16.93;;;20.10;99.90;;;;;;5098281;28;20417;-63
2021/07/26 02:01:35;;;;;;;21.37;16.93;;;20.20;99.90;;;;;;5085788;28;20467;-62
2021/07/26 02:04:03;;;;;;;20.13;18.03;;;20.00;99.90;;;;;;5086560;28;21017;-63
2021/07/26 02:06:30;;;;;;;24.30;17.50;;;20.10;99.90;;;;;;5101983;28;20416;-62
2021/07/26 02:08:57;;;;;;;20.00;18.00;;;20.10;99.90;;;;;;5088276;28;20493;-62
2021/07/26 02:11:24;;;;;;;19.37;17.27;;;20.10;99.90;;;;;;5097566;28;20642;-63
2021/07/26 02:13:52;;;;;;;20.17;18.17;;;19.90;99.90;;;;;;5097077;28;20475;-63
2021/07/26 02:16:20;;;;;;;20.30;17.43;;;19.70;99.90;;;;;;5091750;28;20420;-62
2021/07/26 02:18:47;;;;;;;20.77;18.50;;;19.50;99.90;;;;;;5098719;28;20836;-61
2021/07/26 02:21:15;;;;;;;17.83;16.07;;;19.30;99.90;;;;;;5098654;28;20447;-62
2021/07/26 02:23:44;;;;;;;18.90;17.07;;;19.20;99.90;;;;;;5098077;28;20499;-62
2021/07/26 02:26:11;;;;;;;20.90;18.93;;;19.20;99.90;;;;;;5098500;28;20449;-62
2021/07/26 02:28:38;;;;;;;19.10;17.00;;;19.20;99.90;;;;;;5098318;28;20479;-62
2021/07/26 02:31:05;;;;;;;21.80;18.23;;;19.10;99.90;;;;;;5098550;28;20462;-62
2021/07/26 02:33:32;;;;;;;20.10;18.00;;;19.20;99.90;;;;;;5097968;28;20443;-61
2021/07/26 02:35:59;;;;;;;22.07;17.63;;;19.10;99.90;;;;;;5098179;28;20496;-64
2021/07/26 02:38:26;;;;;;;21.07;18.80;;;19.10;99.90;;;;;;5098232;28;20458;-64
2021/07/26 02:40:53;;;;;;;18.80;16.83;;;19.10;99.90;;;;;;5098386;28;20410;-61
2021/07/26 02:43:20;;;;;;;20.70;18.17;;;19.10;99.90;;;;;;5097638;28;20494;-62
2021/07/26 02:45:48;;;;;;;20.50;18.40;;;19.10;99.90;;;;;;5098315;28;20708;-62
2021/07/26 02:48:15;;;;;;;20.60;18.60;;;19.10;99.90;;;;;;5089563;28;20648;-62
2021/07/26 02:50:42;;;;;;;18.20;16.20;;;19.10;99.90;;;;;;5088476;28;20427;-62
2021/07/26 02:53:09;;;;;;;20.00;15.53;;;19.20;99.90;;;;;;5097937;28;20446;-62
2021/07/26 02:55:38;;;;;;;20.20;18.30;;;19.20;99.90;;;;;;5093578;28;20411;-62
2021/07/26 02:58:05;;;;;;;22.30;20.10;;;19.20;99.90;;;;;;5097850;28;20440;-62
2021/07/26 03:00:32;;;;;;;22.97;18.87;;;19.20;99.90;;;;;;5097404;28;20417;-64
2021/07/26 03:02:59;;;;;;;19.53;17.57;;;19.30;99.90;;;;;;5097864;28;20441;-63
2021/07/26 03:05:27;;;;;;;22.73;19.40;;;19.30;99.90;;;;;;5093537;28;20444;-63
2021/07/26 03:07:54;;;;;;;21.73;19.43;;;19.20;99.90;;;;;;5098008;28;20486;-63
2021/07/26 03:10:21;;;;;;;20.90;18.77;;;19.10;99.90;;;;;;5097760;28;20525;-63
2021/07/26 03:12:48;;;;;;;21.47;17.90;;;19.00;99.90;;;;;;5097452;28;20529;-63
2021/07/26 03:15:15;;;;;;;21.03;18.80;;;19.00;99.90;;;;;;5097892;28;20417;-62
2021/07/26 03:17:42;;;;;;;22.47;18.23;;;18.90;99.90;;;;;;5098375;28;20446;-62
2021/07/26 03:20:09;;;;;;;20.83;18.70;;;19.20;99.90;;;;;;5098549;28;20442;-63
2021/07/26 03:22:55;;;;;;;25.20;20.60;;;19.40;99.90;;;;;;5110533;28;20643;-63
2021/07/26 03:25:22;;;;;;;20.33;18.23;;;19.50;99.90;;;;;;5098482;28;20413;-63
2021/07/26 03:27:49;;;;;;;19.10;15.93;;;19.50;99.90;;;;;;5102030;28;20446;-63
2021/07/26 03:30:18;;;;;;;21.43;18.83;;;19.40;99.90;;;;;;5101386;28;20428;-63
2021/07/26 03:32:45;;;;;;;21.23;18.77;;;19.70;99.90;;;;;;5096827;28;20639;-62
2021/07/26 03:35:14;;;;;;;24.50;20.87;;;19.90;99.90;;;;;;5100866;28;20417;-63
2021/07/26 03:37:41;;;;;;;20.13;18.03;;;20.20;99.90;;;;;;5101465;28;20417;-62
2021/07/26 03:40:09;;;;;;;25.43;18.60;;;20.20;99.90;;;;;;5100954;28;20414;-62
2021/07/26 03:42:37;;;;;;;24.33;19.63;;;20.30;99.90;;;;;;5097226;28;20437;-63
2021/07/26 03:45:06;;;;;;;20.87;18.67;;;20.20;99.90;;;;;;5096766;28;20670;-62
2021/07/26 03:47:34;;;;;;;21.13;18.93;;;20.10;99.90;;;;;;5096542;28;20453;-64
2021/07/26 03:50:01;;;;;;;21.33;19.20;;;19.90;99.90;;;;;;5100726;28;20470;-64
2021/07/26 03:52:28;;;;;;;19.93;18.03;;;19.80;99.90;;;;;;5102155;28;20417;-62
2021/07/26 03:54:56;;;;;;;19.93;17.73;;;19.90;99.90;;;;;;5101090;28;20750;-62
2021/07/26 03:57:23;;;;;;;20.83;18.57;;;19.80;99.90;;;;;;5100911;28;20421;-63
2021/07/26 03:59:50;;;;;;;20.27;18.17;;;19.90;99.90;;;;;;5087639;28;20422;-63
2021/07/26 04:02:17;;;;;;;23.27;18.27;;;20.00;99.90;;;;;;5091498;28;20406;-62
2021/07/26 04:04:44;;;;;;;22.07;18.30;;;20.10;99.90;;;;;;5090213;28;20465;-63
2021/07/26 04:07:19;;;;;;;23.23;19.00;;;20.40;99.90;;;;;;5090224;28;20414;-63
2021/07/26 04:09:48;;;;;;;21.60;19.07;;;20.20;99.90;;;;;;5097020;28;21024;-63
2021/07/26 04:12:22;;;;;;;20.87;18.70;;;20.30;99.90;;;;;;5089007;28;20445;-64
2021/07/26 04:14:49;;;;;;;21.03;18.83;;;20.40;99.90;;;;;;5100645;28;20417;-63
2021/07/26 04:17:16;;;;;;;20.43;18.23;;;20.40;99.90;;;;;;5100679;28;20487;-64
2021/07/26 04:19:43;;;;;;;25.40;20.20;;;20.30;99.90;;;;;;5100854;28;20499;-62
2021/07/26 04:22:10;;;;;;;21.93;19.73;;;20.10;99.90;;;;;;5099801;28;20432;-62
2021/07/26 04:24:37;;;;;;;21.97;19.50;;;20.10;99.90;;;;;;5101421;28;20445;-62
2021/07/26 04:27:04;;;;;;;24.80;21.10;;;20.10;99.90;;;;;;5099497;28;20643;-63
2021/07/26 04:29:31;;;;;;;21.70;19.40;;;20.20;99.90;;;;;;5107772;28;20566;-63
2021/07/26 04:31:59;;;;;;;21.57;19.27;;;20.30;99.90;;;;;;5100528;28;20417;-63
2021/07/26 04:34:26;;;;;;;22.47;18.47;;;20.30;99.90;;;;;;5101204;28;20534;-63
2021/07/26 04:36:53;;;;;;;21.80;19.60;;;20.40;99.90;;;;;;5099788;28;20418;-63
2021/07/26 04:39:20;;;;;;;21.07;18.83;;;20.60;99.90;;;;;;5100305;28;20510;-62
2021/07/26 04:41:47;;;;;;;21.57;19.30;;;20.60;99.90;;;;;;5082403;28;20446;-63
2021/07/26 04:44:14;;;;;;;21.23;19.03;;;20.70;99.90;;;;;;5095047;28;20457;-65
2021/07/26 04:46:41;;;;;;;21.07;18.97;;;20.90;99.90;;;;;;5100264;28;20425;-64
2021/07/26 04:49:08;;;;;;;25.53;22.27;;;20.70;99.90;;;;;;5099927;28;20750;-64
2021/07/26 04:51:35;;;;;;;21.63;19.53;;;20.80;99.90;;;;;;5100276;28;20467;-63
2021/07/26 04:54:02;;;;;;;21.87;19.60;;;20.70;99.90;;;;;;5104273;28;20420;-64
2021/07/26 04:56:29;;;;;;;22.80;20.40;;;20.90;99.90;;;;;;5091632;28;20809;-64
2021/07/26 04:58:56;;;;;;;23.27;19.63;;;20.80;99.90;;;;;;5099585;28;20421;-64
2021/07/26 05:01:23;;;;;;;23.97;20.10;;;20.80;99.90;;;;;;5095103;28;20468;-63
2021/07/26 05:03:50;;;;;;;24.17;20.93;;;20.90;99.90;;;;;;5099464;28;20524;-63
2021/07/26 05:06:19;;;;;;;21.87;19.60;;;21.00;99.90;;;;;;5099525;28;20771;-64
2021/07/26 05:08:46;;;;;;;23.90;20.80;;;21.10;99.90;;;;;;5099088;28;20771;-64
2021/07/26 05:11:14;;;;;;;23.03;20.30;;;21.30;99.90;;;;;;5100142;28;20418;-63
2021/07/26 05:13:41;;;;;;;27.67;20.47;;;21.40;99.90;;;;;;5099476;28;20559;-63
2021/07/26 05:16:08;;;;;;;22.93;20.60;;;21.50;99.90;;;;;;5099313;28;20505;-62
2021/07/26 05:18:35;;;;;;;20.43;18.43;;;21.60;99.90;;;;;;5099055;28;20688;-63
2021/07/26 05:21:02;;;;;;;22.90;20.40;;;21.70;99.90;;;;;;5081887;28;20423;-63
2021/07/26 05:23:29;;;;;;;20.90;18.67;;;21.80;99.90;;;;;;5098762;28;20497;-63
2021/07/26 05:25:56;;;;;;;24.07;20.33;;;21.90;99.90;;;;;;5098884;28;20410;-64
2021/07/26 05:28:23;;;;;;;24.07;21.47;;;22.00;99.90;;;;;;5099159;28;20493;-64
2021/07/26 05:30:50;;;;;;;24.23;21.63;;;22.00;99.90;;;;;;5098992;28;20418;-63
2021/07/26 05:33:17;;;;;;;24.27;21.00;;;21.90;99.90;;;;;;5080800;28;20448;-62
2021/07/26 05:35:45;;;;;;;21.40;18.97;;;21.60;99.90;;;;;;5099426;28;20444;-65
2021/07/26 05:38:12;;;;;;;23.87;21.20;;;21.60;99.90;;;;;;5098367;28;20440;-65
2021/07/26 05:40:41;;;;;;;24.63;20.90;;;21.70;99.90;;;;;;5098975;28;20423;-63
2021/07/26 05:43:10;;;;;;;25.23;22.53;;;21.70;99.90;;;;;;5098594;28;20480;-62
2021/07/26 05:45:38;;;;;;;23.40;21.10;;;21.70;99.90;;;;;;5094509;28;20511;-64
2021/07/26 05:48:05;;;;;;;21.47;19.37;;;21.80;99.90;;;;;;5097955;28;20422;-62
2021/07/26 05:50:32;;;;;;;22.33;19.50;;;21.90;99.90;;;;;;5101731;28;20441;-63
2021/07/26 05:53:04;;;;;;;22.00;19.70;;;21.90;99.90;;;;;;5089553;28;20670;-65
2021/07/26 05:55:32;;;;;;;22.23;19.90;;;22.10;99.90;;;;;;5092878;28;20419;-64
2021/07/26 05:58:01;;;;;;;21.10;19.10;;;22.10;99.90;;;;;;5098803;28;20511;-64
2021/07/26 06:00:42;;;;;;;21.13;19.17;;;21.90;99.90;;;;;;5098170;28;20435;-64
2021/07/26 06:03:10;;;;;;;23.93;21.47;;;21.70;99.90;;;;;;5098944;28;20436;-63
2021/07/26 06:05:37;;;;;;;23.93;20.63;;;21.90;99.90;;;;;;5098588;28;20529;-64
2021/07/26 06:08:04;;;;;;;26.50;20.47;;;22.10;99.90;;;;;;5098567;28;20447;-64
2021/07/26 06:10:32;;;;;;;20.90;18.80;;;22.30;99.90;;;;;;5098951;28;20415;-63
2021/07/26 06:12:59;;;;;;;24.13;19.70;;;22.50;99.90;;;;;;5107135;28;20810;-63
2021/07/26 06:15:26;;;;;;;25.03;22.47;;;22.60;99.90;;;;;;5103663;28;20419;-63
2021/07/26 06:17:53;;;;;;;23.37;20.77;;;22.80;99.90;;;;;;5103389;28;20474;-64
2021/07/26 06:20:20;;;;;;;20.43;18.50;;;22.80;99.90;;;;;;5103467;28;20513;-64
2021/07/26 06:22:47;;;;;;;21.97;19.67;;;23.00;99.90;;;;;;5098823;28;20446;-63
2021/07/26 06:25:15;;;;;;;23.40;21.13;;;23.10;99.90;;;;;;5098019;28;20485;-64
2021/07/26 06:27:42;;;;;;;23.20;20.80;;;23.30;99.90;;;;;;5097095;28;20435;-63
2021/07/26 06:30:09;;;;;;;23.10;20.90;;;23.40;99.90;;;;;;5098100;28;20707;-63
2021/07/26 06:32:37;;;;;;;20.20;18.20;;;23.80;99.90;;;;;;5098246;28;20781;-64
2021/07/26 06:35:05;;;;;;;22.40;20.03;;;24.10;99.90;;;;;;5092437;28;20424;-63
2021/07/26 06:37:32;;;;;;;19.53;17.67;;;24.40;99.90;;;;;;5093608;28;20443;-63
2021/07/26 06:39:59;;;;;;;20.73;18.70;;;24.70;99.90;;;;;;5096271;28;20795;-64
2021/07/26 06:42:26;;;;;;;27.30;22.30;;;25.00;99.90;;;;;;5103857;28;20951;-63
2021/07/26 06:44:53;;;;;;;22.00;19.83;;;25.40;99.90;;;;;;5096486;28;20516;-64
2021/07/26 06:47:20;;;;;;;20.97;18.73;;;25.90;99.90;;;;;;5098206;28;20417;-63
2021/07/26 06:49:47;;;;;;;18.50;16.73;;;26.00;99.90;;;;;;5096418;28;20435;-63
2021/07/26 06:52:14;;;;;;;19.47;17.53;;;26.00;99.90;;;;;;5092436;28;20439;-63
2021/07/26 06:54:42;;;;;;;19.07;17.27;;;26.30;99.90;;;;;;5097581;28;20481;-62
2021/07/26 06:57:09;;;;;;;22.67;19.57;;;26.80;99.90;;;;;;5095796;28;20723;-63
2021/07/26 06:59:36;;;;;;;19.30;17.40;;;27.10;99.90;;;;;;5095702;28;20757;-64
2021/07/26 07:02:03;;;;;;;18.70;16.90;;;27.60;99.90;;;;;;5105141;28;20478;-63
2021/07/26 07:04:30;;;;;;;18.97;17.07;;;27.80;99.90;;;;;;5105790;28;20474;-63
2021/07/26 07:06:57;;;;;;;22.33;19.97;;;27.70;99.90;;;;;;5110742;28;20450;-63
2021/07/26 07:09:24;;;;;;;20.83;18.63;;;27.90;99.90;;;;;;5104544;28;20431;-63
2021/07/26 07:11:51;;;;;;;21.37;19.30;;;28.00;99.90;;;;;;5097449;28;20476;-63
2021/07/26 07:14:18;;;;;;;19.93;17.83;;;27.80;99.90;;;;;;5111828;28;20622;-63
2021/07/26 07:16:45;;;;;;;19.03;16.97;;;27.80;99.90;;;;;;5101274;28;20441;-63
2021/07/26 07:19:12;;;;;;;19.37;17.70;;;27.80;99.90;;;;;;5101210;28;20457;-64
2021/07/26 07:21:39;;;;;;;21.00;19.00;;;27.80;99.90;;;;;;5101003;28;20840;-63
2021/07/26 07:24:06;;;;;;;21.13;19.07;;;27.90;99.90;;;;;;5095530;28;20833;-64
2021/07/26 07:26:35;;;;;;;19.57;17.80;;;28.20;99.90;;;;;;5102032;28;20672;-64
2021/07/26 07:29:03;;;;;;;17.63;16.13;;;28.30;99.90;;;;;;5100670;28;20469;-64
2021/07/26 07:31:39;;;;;;;19.63;17.80;;;28.40;99.90;;;;;;5104464;28;20497;-62
2021/07/26 07:34:07;;;;;;;18.90;16.30;;;28.20;99.90;;;;;;5101173;28;20764;-65
2021/07/26 07:36:34;;;;;;;19.03;17.43;;;28.00;99.90;;;;;;5110219;28;20447;-64
2021/07/26 07:39:02;;;;;;;20.00;18.10;;;28.00;99.90;;;;;;5107834;28;20693;-64
2021/07/26 07:41:30;;;;;;;19.83;18.13;;;27.90;99.90;;;;;;5103092;28;20497;-65
2021/07/26 07:43:57;;;;;;;21.60;19.60;;;28.30;99.90;;;;;;5108991;28;20856;-64
2021/07/26 07:46:24;;;;;;;19.30;17.70;;;28.40;99.90;;;;;;5105904;28;20446;-64
2021/07/26 07:48:51;;;;;;;21.07;19.13;;;28.50;99.90;;;;;;5105134;28;20809;-65
2021/07/26 07:51:18;;;;;;;18.17;16.63;;;28.40;99.90;;;;;;5113852;28;20831;-64
2021/07/26 07:53:47;;;;;;;19.17;17.47;;;28.00;99.90;;;;;;5101272;28;20442;-63
2021/07/26 07:56:14;;;;;;;20.00;18.10;;;27.40;99.90;;;;;;5100460;28;20444;-64
2021/07/26 07:58:41;;;;;;;20.40;18.60;;;27.10;99.90;;;;;;5101716;28;20441;-63
2021/07/26 08:01:09;;;;;;;21.33;19.33;;;27.30;99.90;;;;;;5080084;28;20497;-64
2021/07/26 08:03:36;;;;;;;20.37;18.40;;;27.20;99.90;;;;;;5108907;28;20447;-65
2021/07/26 08:06:03;;;;;;;19.80;18.00;;;27.30;99.90;;;;;;5118166;28;20516;-64
2021/07/26 08:08:30;;;;;;;19.20;17.43;;;27.80;99.90;;;;;;5115473;28;20808;-65
2021/07/26 08:10:58;;;;;;;21.33;19.30;;;28.10;99.90;;;;;;5106171;28;20442;-63
2021/07/26 08:13:27;;;;;;;21.43;19.27;;;28.30;99.80;;;;;;5111736;28;20466;-65
2021/07/26 08:15:55;;;;;;;19.43;17.83;;;28.70;99.40;;;;;;5115793;28;20478;-64
2021/07/26 08:18:23;;;;;;;19.03;17.33;;;29.00;98.70;;;;;;5105812;28;20454;-62
2021/07/26 08:20:51;;;;;;;20.40;18.33;;;29.10;98.10;;;;;;5101019;28;20445;-64
2021/07/26 08:23:18;;;;;;;19.93;18.20;;;28.90;98.40;;;;;;5100152;28;20492;-65
2021/07/26 08:25:45;;;;;;;21.23;19.00;;;29.00;97.90;;;;;;5082544;28;20475;-64
2021/07/26 08:28:12;;;;;;;20.03;18.43;;;30.00;97.00;;;;;;5100389;28;20465;-64
2021/07/26 08:30:41;;;;;;;19.63;17.93;;;32.50;93.90;;;;;;5102005;28;20439;-64
2021/07/26 08:33:08;;;;;;;20.37;18.57;;;34.90;90.30;;;;;;5114338;28;20489;-63
2021/07/26 08:35:36;;;;;;;21.00;19.40;;;36.70;83.10;;;;;;5114139;28;20441;-63
2021/07/26 08:38:04;;;;;;;25.87;19.40;;;38.60;75.90;;;;;;5117835;28;20503;-63
2021/07/26 08:40:32;;;;;;;21.67;19.83;;;40.40;68.50;;;;;;5111649;28;20445;-62
2021/07/26 08:43:04;;;;;;;22.30;20.60;;;40.40;66.90;;;;;;5115577;28;20776;-63
2021/07/26 08:45:32;;;;;;;20.43;19.00;;;39.10;67.20;;;;;;5108037;28;20478;-63
2021/07/26 08:48:05;;;;;;;20.50;19.10;;;38.40;68.80;;;;;;5110061;28;20822;-63
2021/07/26 08:50:34;;;;;;;22.23;20.60;;;38.10;69.60;;;;;;5107294;28;20438;-63
2021/07/26 08:53:06;;;;;;;22.00;20.40;;;38.50;69.00;;;;;;5115051;28;20438;-63
2021/07/26 08:55:34;;;;;;;23.17;21.03;;;40.70;64.10;;;;;;5112410;28;20441;-63
2021/07/26 08:58:04;;;;;;;21.03;19.50;;;41.00;62.30;;;;;;5114743;28;20477;-63
2021/07/26 09:00:31;;;;;;;21.50;20.10;;;40.30;62.70;;;;;;5112041;28;20496;-64
2021/07/26 09:02:59;;;;;;;22.40;20.80;;;39.50;63.90;;;;;;5106443;28;20466;-65
2021/07/26 09:05:27;;;;;;;22.70;20.97;;;39.50;64.30;;;;;;5098167;28;20510;-63
2021/07/26 09:07:55;;;;;;;21.50;20.20;;;40.70;60.50;;;;;;5098264;28;20506;-64
2021/07/26 09:10:24;;;;;;;21.53;20.13;;;40.50;60.20;;;;;;5102348;28;20450;-63
2021/07/26 09:12:53;;;;;;;22.20;20.70;;;42.10;57.80;;;;;;5098482;28;20526;-63
2021/07/26 09:15:31;;;;;;;22.47;20.97;;;43.40;54.60;;;;;;5084597;28;20442;-63
2021/07/26 09:18:01;;;;;;;22.23;20.77;;;43.20;54.50;;;;;;5100324;28;20455;-62
2021/07/26 09:20:30;;;;;;;22.03;20.23;;;42.80;55.30;;;;;;5094542;28;20511;-64
2021/07/26 09:23:12;;;;;;;21.33;20.03;;;41.60;56.40;;;;;;5097948;28;20446;-64
2021/07/26 09:25:43;;;;;;;20.07;18.67;;;41.10;56.10;;;;;;5080630;28;20683;-64
2021/07/26 09:28:20;;;;;;;22.27;20.77;;;40.70;56.30;;;;;;5106119;28;20447;-64
2021/07/26 09:30:52;;;;;;;19.97;18.67;;;39.80;57.40;;;;;;5104923;28;20434;-63
2021/07/26 09:33:23;;;;;;;20.47;19.00;;;40.00;57.50;;;;;;5103673;28;20841;-63
2021/07/26 09:36:13;;;;;;;21.90;20.40;;;40.70;57.10;;;;;;5076551;28;20457;-64
2021/07/26 09:38:53;;;;;;;21.13;19.20;;;38.20;60.50;;;;;;5097851;28;20492;-63
2021/07/26 09:41:45;;;;;;;20.37;19.07;;;37.00;64.30;;;;;;5094838;28;20442;-64
2021/07/26 09:44:13;;;;;;;20.57;19.17;;;35.50;67.40;;;;;;5095307;28;20436;-63
2021/07/26 09:46:40;;;;;;;19.70;18.40;;;34.90;69.80;;;;;;5090810;28;20471;-64
2021/07/26 09:49:18;;;;;;;21.10;19.70;;;34.60;70.50;;;;;;5095121;28;20451;-63
2021/07/26 09:52:09;;;;;;;21.63;20.13;;;33.40;72.90;;;;;;5104415;28;20458;-64
2021/07/26 09:54:44;;;;;;;18.30;16.87;;;33.10;74.90;;;;;;5096793;28;20788;-64
2021/07/26 09:57:22;;;;;;;19.80;18.40;;;32.80;75.60;;;;;;5082274;28;20508;-62
2021/07/26 09:59:51;;;;;;;20.43;18.63;;;32.10;75.60;;;;;;5088023;28;20439;-63
2021/07/26 10:02:25;;;;;;;20.50;18.90;;;31.60;77.70;;;;;;5088284;28;20443;-64
2021/07/26 10:04:54;;;;;;;18.83;17.33;;;31.40;79.20;;;;;;5087302;28;20646;-63
2021/07/26 10:07:23;;;;;;;22.47;20.57;;;31.30;80.10;;;;;;5097953;28;20447;-63
2021/07/26 10:09:50;;;;;;;17.17;16.00;;;31.10;81.50;;;;;;5098076;28;20453;-63
2021/07/26 10:12:20;;;;;;;18.53;17.23;;;31.00;82.20;;;;;;5086891;28;20489;-63
2021/07/26 10:14:49;;;;;;;20.13;18.67;;;30.50;83.20;;;;;;5096694;28;20604;-62
2021/07/26 10:17:18;;;;;;;19.70;18.13;;;30.40;83.20;;;;;;5100862;28;20763;-62
2021/07/26 10:19:45;;;;;;;18.87;17.47;;;30.30;84.60;;;;;;5097931;28;20569;-64
2021/07/26 10:22:21;;;;;;;19.10;17.73;;;30.30;84.10;;;;;;5100588;28;20505;-64
2021/07/26 10:24:55;;;;;;;18.53;17.13;;;30.60;85.30;;;;;;5103404;28;20601;-63
2021/07/26 10:27:31;;;;;;;20.13;18.33;;;30.80;82.70;;;;;;5102182;28;20432;-63
2021/07/26 10:29:59;;;;;;;20.10;18.60;;;30.70;82.90;;;;;;5104396;28;20846;-64
2021/07/26 10:32:29;;;;;;;19.90;18.50;;;30.80;83.70;;;;;;5098022;28;20544;-63
2021/07/26 10:34:57;;;;;;;19.73;18.23;;;30.80;84.40;;;;;;5085371;28;21517;-62
2021/07/26 10:37:39;;;;;;;20.00;18.43;;;30.70;84.00;;;;;;5093092;28;20486;-63
2021/07/26 10:40:31;;;;;;;17.93;16.63;;;30.80;84.40;;;;;;5097234;28;20468;-62
2021/07/26 10:43:03;;;;;;;18.03;16.70;;;31.20;84.00;;;;;;5089586;28;20467;-63
2021/07/26 10:45:33;;;;;;;19.60;18.30;;;31.20;81.80;;;;;;5102657;28;20653;-62
2021/07/26 10:48:24;;;;;;;19.27;17.77;;;31.20;82.50;;;;;;5096870;28;20466;-63
2021/07/26 10:50:59;;;;;;;17.97;16.57;;;31.50;81.60;;;;;;5084858;28;20833;-62
2021/07/26 10:53:34;;;;;;;19.60;18.07;;;31.50;82.70;;;;;;5097769;28;20452;-62
2021/07/26 10:56:08;;;;;;;19.80;18.20;;;31.40;83.20;;;;;;5104178;28;20437;-63
2021/07/26 10:58:38;;;;;;;19.03;17.47;;;31.30;83.30;;;;;;5106878;28;20816;-62
2021/07/26 11:01:20;;;;;;;19.53;18.03;;;31.30;84.30;;;;;;5108220;28;20439;-63
2021/07/26 11:03:47;;;;;;;19.83;18.23;;;31.50;84.40;;;;;;5106858;28;20462;-63
2021/07/26 11:06:33;;;;;;;19.87;18.40;;;31.70;83.00;;;;;;5101746;28;20485;-63
2021/07/26 11:09:20;;;;;;;18.10;16.70;;;31.70;81.30;;;;;;5107752;28;20446;-63
2021/07/26 11:11:49;;;;;;;18.97;17.47;;;31.40;81.80;;;;;;5101628;28;20770;-63
2021/07/26 11:14:17;;;;;;;17.40;16.10;;;31.30;83.90;;;;;;5092578;28;20473;-63
2021/07/26 11:16:55;;;;;;;18.93;17.30;;;31.40;84.10;;;;;;5103603;28;20788;-63
2021/07/26 11:19:40;;;;;;;16.60;15.40;;;31.60;81.30;;;;;;5112917;28;20462;-63
2021/07/26 11:22:17;;;;;;;23.20;17.70;;;31.60;81.80;;;;;;5106555;28;20438;-63
2021/07/26 11:24:48;;;;;;;19.43;17.93;;;31.50;82.60;;;;;;5110973;28;20471;-61
2021/07/26 11:27:37;;;;;;;18.33;16.93;;;31.20;82.10;;;;;;5107122;28;20568;-63
2021/07/26 11:30:12;;;;;;;19.50;17.80;;;31.00;82.40;;;;;;5089631;28;20472;-63
2021/07/26 11:32:41;;;;;;;17.30;16.10;;;30.40;84.90;;;;;;5109876;28;20767;-63
2021/07/26 11:35:08;;;;;;;17.83;16.43;;;30.30;84.50;;;;;;5096903;28;20459;-63
2021/07/26 11:37:37;;;;;;;19.13;17.63;;;29.90;85.90;;;;;;5098556;28;20734;-64
2021/07/26 11:40:09;;;;;;;19.20;17.40;;;30.10;87.00;;;;;;5097920;28;20664;-63
2021/07/26 11:42:41;;;;;;;19.70;18.20;;;30.40;86.90;;;;;;5102050;28;20667;-64
2021/07/26 11:45:16;;;;;;;17.40;16.20;;;30.80;85.30;;;;;;5093146;28;20440;-64
2021/07/26 11:47:48;;;;;;;19.03;17.53;;;31.20;83.10;;;;;;5094258;28;20446;-63
2021/07/26 11:50:21;;;;;;;18.67;17.00;;;31.50;82.70;;;;;;5100266;28;20450;-64
2021/07/26 11:52:53;;;;;;;18.97;17.67;;;31.40;83.10;;;;;;5077630;28;20756;-62
2021/07/26 11:55:21;;;;;;;18.87;17.47;;;31.10;83.00;;;;;;5101514;28;20505;-63
2021/07/26 11:57:55;;;;;;;18.57;17.17;;;30.80;83.10;;;;;;5100359;28;20432;-62
2021/07/26 12:00:30;;;;;;;19.67;18.07;;;30.90;83.00;;;;;;5100445;28;20445;-63
2021/07/26 12:02:58;;;;;;;18.80;17.40;;;30.70;83.60;;;;;;5088951;28;20443;-64
2021/07/26 12:05:30;;;;;;;20.40;18.70;;;30.50;85.10;;;;;;5099771;28;20506;-63
2021/07/26 12:08:10;;;;;;;19.23;17.87;;;30.00;85.00;;;;;;5092939;28;20463;-64
2021/07/26 12:10:38;;;;;;;19.53;17.53;;;30.00;87.10;;;;;;5100280;28;20509;-62
2021/07/26 12:13:17;;;;;;;18.57;17.27;;;30.20;85.60;;;;;;5100171;28;20472;-63
2021/07/26 12:15:49;;;;;;;18.93;17.57;;;30.50;84.50;;;;;;5098375;28;20450;-64
2021/07/26 12:18:35;;;;;;;17.00;15.80;;;30.70;84.40;;;;;;5100103;28;20464;-62
2021/07/26 12:21:05;;;;;;;19.30;17.40;;;30.60;84.80;;;;;;5100836;28;20451;-62
2021/07/26 12:23:34;;;;;;;19.10;17.27;;;30.40;85.60;;;;;;5098629;28;20545;-64
2021/07/26 12:26:09;;;;;;;17.17;15.93;;;30.80;83.90;;;;;;5087821;28;20483;-63
2021/07/26 12:28:49;;;;;;;18.10;16.70;;;31.10;83.00;;;;;;5099761;28;20435;-63
2021/07/26 12:31:43;;;;;;;17.03;15.73;;;31.20;82.90;;;;;;5097765;28;20758;-63
2021/07/26 12:34:18;;;;;;;20.30;18.70;;;31.30;82.30;;;;;;5106404;28;20444;-64
2021/07/26 12:36:46;;;;;;;18.50;17.10;;;31.50;80.60;;;;;;5105710;28;20490;-64
2021/07/26 12:39:14;;;;;;;16.93;15.70;;;31.50;79.80;;;;;;5105431;28;20560;-64
2021/07/26 12:41:49;;;;;;;18.57;17.17;;;31.70;81.40;;;;;;5100132;28;20442;-62